sensor_id;sensor_type;location;lat;lon;timestamp;P1;durP1;ratioP1;P2;durP2;ratioP2
25846;SDS011;13676;50.168;8.568;2022-09-24T00:00:42;3.22;;;2.58;;
25846;SDS011;13676;50.168;8.568;2022-09-24T00:03:14;4.13;;;2.60;;
25846;SDS011;13676;50.168;8.568;2022-09-24T00:05:39;4.18;;;3.00;;
25846;SDS011;13676;50.168;8.568;2022-09-24T00:08:06;4.82;;;2.30;;
25846;SDS011;13676;50.168;8.568;2022-09-24T00:10:35;2.17;;;1.98;;
25846;SDS011;13676;50.168;8.568;2022-09-24T00:13:07;4.65;;;2.40;;
25846;SDS011;13676;50.168;8.568;2022-09-24T00:15:40;3.28;;;2.38;;
25846;SDS011;13676;50.168;8.568;2022-09-24T00:18:06;3.45;;;2.40;;
25846;SDS011;13676;50.168;8.568;2022-09-24T00:20:33;3.45;;;2.22;;
25846;SDS011;13676;50.168;8.568;2022-09-24T00:22:59;2.75;;;1.92;;
25846;SDS011;13676;50.168;8.568;2022-09-24T00:25:25;5.00;;;2.10;;
25846;SDS011;13676;50.168;8.568;2022-09-24T00:28:09;2.85;;;1.98;;
25846;SDS011;13676;50.168;8.568;2022-09-24T00:30:37;2.72;;;2.10;;
25846;SDS011;13676;50.168;8.568;2022-09-24T00:33:03;2.75;;;2.20;;
25846;SDS011;13676;50.168;8.568;2022-09-24T00:35:33;3.42;;;2.15;;
25846;SDS011;13676;50.168;8.568;2022-09-24T00:37:59;5.13;;;2.50;;
25846;SDS011;13676;50.168;8.568;2022-09-24T00:40:28;3.38;;;1.90;;
25846;SDS011;13676;50.168;8.568;2022-09-24T00:42:57;3.97;;;2.35;;
25846;SDS011;13676;50.168;8.568;2022-09-24T00:45:23;3.42;;;2.15;;
25846;SDS011;13676;50.168;8.568;2022-09-24T00:47:49;2.45;;;1.90;;
25846;SDS011;13676;50.168;8.568;2022-09-24T00:52:45;3.05;;;2.20;;
25846;SDS011;13676;50.168;8.568;2022-09-24T00:55:13;5.10;;;2.45;;
25846;SDS011;13676;50.168;8.568;2022-09-24T00:57:38;3.40;;;2.17;;
25846;SDS011;13676;50.168;8.568;2022-09-24T01:00:05;5.00;;;2.67;;
25846;SDS011;13676;50.168;8.568;2022-09-24T01:02:33;4.47;;;2.70;;
25846;SDS011;13676;50.168;8.568;2022-09-24T01:05:01;4.05;;;2.42;;
25846;SDS011;13676;50.168;8.568;2022-09-24T01:07:26;2.90;;;2.20;;
25846;SDS011;13676;50.168;8.568;2022-09-24T01:09:52;4.75;;;3.22;;
25846;SDS011;13676;50.168;8.568;2022-09-24T01:14:49;4.43;;;2.53;;
25846;SDS011;13676;50.168;8.568;2022-09-24T01:26:37;6.05;;;2.60;;
25846;SDS011;13676;50.168;8.568;2022-09-24T01:29:27;3.85;;;2.47;;
25846;SDS011;13676;50.168;8.568;2022-09-24T01:34:40;4.03;;;2.80;;
25846;SDS011;13676;50.168;8.568;2022-09-24T01:37:07;4.05;;;2.78;;
25846;SDS011;13676;50.168;8.568;2022-09-24T01:39:32;3.72;;;2.83;;
25846;SDS011;13676;50.168;8.568;2022-09-24T01:42:01;3.47;;;2.45;;
25846;SDS011;13676;50.168;8.568;2022-09-24T01:44:26;4.00;;;3.00;;
25846;SDS011;13676;50.168;8.568;2022-09-24T01:46:52;2.80;;;2.47;;
25846;SDS011;13676;50.168;8.568;2022-09-24T01:49:18;3.38;;;2.55;;
25846;SDS011;13676;50.168;8.568;2022-09-24T01:51:47;4.38;;;3.13;;
25846;SDS011;13676;50.168;8.568;2022-09-24T01:54:24;5.38;;;3.00;;
25846;SDS011;13676;50.168;8.568;2022-09-24T01:57:02;7.57;;;3.40;;
25846;SDS011;13676;50.168;8.568;2022-09-24T01:59:35;4.53;;;3.00;;
25846;SDS011;13676;50.168;8.568;2022-09-24T02:02:06;5.32;;;3.38;;
25846;SDS011;13676;50.168;8.568;2022-09-24T02:04:40;5.90;;;3.20;;
25846;SDS011;13676;50.168;8.568;2022-09-24T02:07:12;7.05;;;3.63;;
25846;SDS011;13676;50.168;8.568;2022-09-24T02:09:41;6.00;;;2.70;;
25846;SDS011;13676;50.168;8.568;2022-09-24T02:12:11;3.95;;;2.70;;
25846;SDS011;13676;50.168;8.568;2022-09-24T02:14:57;4.57;;;3.03;;
25846;SDS011;13676;50.168;8.568;2022-09-24T02:17:26;6.25;;;3.05;;
25846;SDS011;13676;50.168;8.568;2022-09-24T02:19:55;4.47;;;3.20;;
25846;SDS011;13676;50.168;8.568;2022-09-24T02:24:49;5.57;;;2.80;;
25846;SDS011;13676;50.168;8.568;2022-09-24T02:27:16;3.25;;;2.60;;
25846;SDS011;13676;50.168;8.568;2022-09-24T02:29:41;2.75;;;2.13;;
25846;SDS011;13676;50.168;8.568;2022-09-24T02:32:08;2.53;;;2.22;;
25846;SDS011;13676;50.168;8.568;2022-09-24T02:34:36;2.97;;;2.13;;
25846;SDS011;13676;50.168;8.568;2022-09-24T02:37:04;3.25;;;2.00;;
25846;SDS011;13676;50.168;8.568;2022-09-24T02:39:31;3.83;;;2.47;;
25846;SDS011;13676;50.168;8.568;2022-09-24T02:41:57;5.28;;;2.00;;
25846;SDS011;13676;50.168;8.568;2022-09-24T02:44:22;2.30;;;1.90;;
25846;SDS011;13676;50.168;8.568;2022-09-24T02:46:48;2.55;;;2.00;;
25846;SDS011;13676;50.168;8.568;2022-09-24T02:49:14;2.65;;;2.10;;
25846;SDS011;13676;50.168;8.568;2022-09-24T02:51:40;7.30;;;2.40;;
25846;SDS011;13676;50.168;8.568;2022-09-24T02:54:06;3.05;;;1.90;;
25846;SDS011;13676;50.168;8.568;2022-09-24T02:56:31;2.38;;;1.92;;
25846;SDS011;13676;50.168;8.568;2022-09-24T02:58:57;2.70;;;1.95;;
25846;SDS011;13676;50.168;8.568;2022-09-24T03:01:22;2.00;;;1.80;;
25846;SDS011;13676;50.168;8.568;2022-09-24T03:03:48;3.28;;;2.13;;
25846;SDS011;13676;50.168;8.568;2022-09-24T03:06:14;2.22;;;1.85;;
25846;SDS011;13676;50.168;8.568;2022-09-24T03:08:40;2.55;;;2.10;;
25846;SDS011;13676;50.168;8.568;2022-09-24T03:11:06;2.00;;;1.75;;
25846;SDS011;13676;50.168;8.568;2022-09-24T03:13:32;3.38;;;2.03;;
25846;SDS011;13676;50.168;8.568;2022-09-24T03:15:58;2.08;;;1.88;;
25846;SDS011;13676;50.168;8.568;2022-09-24T03:18:23;5.00;;;2.28;;
25846;SDS011;13676;50.168;8.568;2022-09-24T03:23:21;3.60;;;2.22;;
25846;SDS011;13676;50.168;8.568;2022-09-24T03:25:46;5.47;;;2.30;;
25846;SDS011;13676;50.168;8.568;2022-09-24T03:28:11;3.28;;;2.50;;
25846;SDS011;13676;50.168;8.568;2022-09-24T03:30:37;6.68;;;3.08;;
25846;SDS011;13676;50.168;8.568;2022-09-24T03:33:20;3.95;;;2.55;;
25846;SDS011;13676;50.168;8.568;2022-09-24T03:35:46;2.85;;;2.42;;
25846;SDS011;13676;50.168;8.568;2022-09-24T03:38:11;3.40;;;2.55;;
25846;SDS011;13676;50.168;8.568;2022-09-24T03:40:36;3.80;;;2.65;;
25846;SDS011;13676;50.168;8.568;2022-09-24T03:43:02;4.20;;;2.60;;
25846;SDS011;13676;50.168;8.568;2022-09-24T03:45:27;4.05;;;2.92;;
25846;SDS011;13676;50.168;8.568;2022-09-24T03:47:52;4.30;;;2.63;;
25846;SDS011;13676;50.168;8.568;2022-09-24T03:50:19;3.65;;;2.65;;
25846;SDS011;13676;50.168;8.568;2022-09-24T03:52:44;3.83;;;2.38;;
25846;SDS011;13676;50.168;8.568;2022-09-24T03:55:10;4.93;;;3.05;;
25846;SDS011;13676;50.168;8.568;2022-09-24T03:57:35;4.00;;;3.15;;
25846;SDS011;13676;50.168;8.568;2022-09-24T04:00:00;4.05;;;3.33;;
25846;SDS011;13676;50.168;8.568;2022-09-24T04:02:26;5.25;;;3.08;;
25846;SDS011;13676;50.168;8.568;2022-09-24T04:04:51;4.38;;;3.10;;
25846;SDS011;13676;50.168;8.568;2022-09-24T04:07:17;3.83;;;3.05;;
25846;SDS011;13676;50.168;8.568;2022-09-24T04:09:42;4.47;;;3.08;;
25846;SDS011;13676;50.168;8.568;2022-09-24T04:12:08;4.63;;;3.85;;
25846;SDS011;13676;50.168;8.568;2022-09-24T04:14:33;8.40;;;3.40;;
25846;SDS011;13676;50.168;8.568;2022-09-24T04:16:58;6.15;;;3.90;;
25846;SDS011;13676;50.168;8.568;2022-09-24T04:19:24;4.82;;;3.85;;
25846;SDS011;13676;50.168;8.568;2022-09-24T04:21:50;5.00;;;4.00;;
25846;SDS011;13676;50.168;8.568;2022-09-24T04:24:16;5.00;;;3.83;;
25846;SDS011;13676;50.168;8.568;2022-09-24T04:26:42;6.55;;;3.67;;
25846;SDS011;13676;50.168;8.568;2022-09-24T04:29:07;4.80;;;3.42;;
25846;SDS011;13676;50.168;8.568;2022-09-24T04:31:33;5.97;;;3.88;;
25846;SDS011;13676;50.168;8.568;2022-09-24T04:33:58;5.13;;;3.53;;
25846;SDS011;13676;50.168;8.568;2022-09-24T04:36:24;4.47;;;3.65;;
25846;SDS011;13676;50.168;8.568;2022-09-24T04:38:49;5.78;;;3.85;;
25846;SDS011;13676;50.168;8.568;2022-09-24T04:41:15;5.13;;;3.75;;
25846;SDS011;13676;50.168;8.568;2022-09-24T04:43:41;4.95;;;3.95;;
25846;SDS011;13676;50.168;8.568;2022-09-24T04:46:07;4.65;;;4.00;;
25846;SDS011;13676;50.168;8.568;2022-09-24T04:48:34;5.18;;;4.35;;
25846;SDS011;13676;50.168;8.568;2022-09-24T04:51:02;5.47;;;4.35;;
25846;SDS011;13676;50.168;8.568;2022-09-24T04:53:30;4.75;;;4.00;;
25846;SDS011;13676;50.168;8.568;2022-09-24T04:55:57;4.90;;;4.10;;
25846;SDS011;13676;50.168;8.568;2022-09-24T04:58:24;5.68;;;4.55;;
25846;SDS011;13676;50.168;8.568;2022-09-24T05:00:49;5.18;;;4.00;;
25846;SDS011;13676;50.168;8.568;2022-09-24T05:03:15;5.60;;;4.05;;
25846;SDS011;13676;50.168;8.568;2022-09-24T05:05:40;8.70;;;4.15;;
25846;SDS011;13676;50.168;8.568;2022-09-24T05:08:06;5.10;;;3.97;;
25846;SDS011;13676;50.168;8.568;2022-09-24T05:10:31;6.63;;;4.07;;
25846;SDS011;13676;50.168;8.568;2022-09-24T05:12:57;6.38;;;4.50;;
25846;SDS011;13676;50.168;8.568;2022-09-24T05:15:23;10.38;;;4.50;;
25846;SDS011;13676;50.168;8.568;2022-09-24T05:17:48;6.35;;;4.30;;
25846;SDS011;13676;50.168;8.568;2022-09-24T05:20:13;6.22;;;4.43;;
25846;SDS011;13676;50.168;8.568;2022-09-24T05:22:41;7.93;;;5.22;;
25846;SDS011;13676;50.168;8.568;2022-09-24T05:25:10;6.85;;;5.13;;
25846;SDS011;13676;50.168;8.568;2022-09-24T05:27:37;7.30;;;5.88;;
25846;SDS011;13676;50.168;8.568;2022-09-24T05:30:11;7.20;;;4.70;;
25846;SDS011;13676;50.168;8.568;2022-09-24T05:32:37;8.18;;;5.20;;
25846;SDS011;13676;50.168;8.568;2022-09-24T05:35:02;6.53;;;5.00;;
25846;SDS011;13676;50.168;8.568;2022-09-24T05:37:27;7.70;;;4.82;;
25846;SDS011;13676;50.168;8.568;2022-09-24T05:39:53;7.53;;;4.97;;
25846;SDS011;13676;50.168;8.568;2022-09-24T05:42:18;6.25;;;4.43;;
25846;SDS011;13676;50.168;8.568;2022-09-24T05:44:44;5.78;;;4.18;;
25846;SDS011;13676;50.168;8.568;2022-09-24T05:47:09;6.30;;;4.45;;
25846;SDS011;13676;50.168;8.568;2022-09-24T05:49:34;6.60;;;4.10;;
25846;SDS011;13676;50.168;8.568;2022-09-24T05:52:00;7.18;;;4.00;;
25846;SDS011;13676;50.168;8.568;2022-09-24T05:54:26;5.95;;;4.40;;
25846;SDS011;13676;50.168;8.568;2022-09-24T05:56:51;6.65;;;4.30;;
25846;SDS011;13676;50.168;8.568;2022-09-24T05:59:16;4.88;;;4.13;;
25846;SDS011;13676;50.168;8.568;2022-09-24T06:01:42;6.93;;;4.20;;
25846;SDS011;13676;50.168;8.568;2022-09-24T06:04:08;8.65;;;3.90;;
25846;SDS011;13676;50.168;8.568;2022-09-24T06:06:34;5.47;;;4.18;;
25846;SDS011;13676;50.168;8.568;2022-09-24T06:09:00;5.55;;;3.92;;
25846;SDS011;13676;50.168;8.568;2022-09-24T06:11:25;7.32;;;4.40;;
25846;SDS011;13676;50.168;8.568;2022-09-24T06:13:52;5.88;;;4.00;;
25846;SDS011;13676;50.168;8.568;2022-09-24T06:16:17;5.68;;;4.40;;
25846;SDS011;13676;50.168;8.568;2022-09-24T06:18:42;4.90;;;3.88;;
25846;SDS011;13676;50.168;8.568;2022-09-24T06:21:15;5.20;;;3.97;;
25846;SDS011;13676;50.168;8.568;2022-09-24T06:23:41;5.10;;;4.28;;
25846;SDS011;13676;50.168;8.568;2022-09-24T06:26:10;6.32;;;4.25;;
25846;SDS011;13676;50.168;8.568;2022-09-24T06:28:36;4.70;;;3.60;;
25846;SDS011;13676;50.168;8.568;2022-09-24T06:31:02;7.50;;;5.00;;
25846;SDS011;13676;50.168;8.568;2022-09-24T06:33:28;5.70;;;4.32;;
25846;SDS011;13676;50.168;8.568;2022-09-24T06:35:54;5.97;;;4.32;;
25846;SDS011;13676;50.168;8.568;2022-09-24T06:38:23;5.22;;;3.90;;
25846;SDS011;13676;50.168;8.568;2022-09-24T06:40:49;6.03;;;4.03;;
25846;SDS011;13676;50.168;8.568;2022-09-24T06:43:14;4.75;;;4.00;;
25846;SDS011;13676;50.168;8.568;2022-09-24T06:45:40;8.27;;;4.38;;
25846;SDS011;13676;50.168;8.568;2022-09-24T06:48:07;8.05;;;4.35;;
25846;SDS011;13676;50.168;8.568;2022-09-24T06:50:34;6.43;;;4.53;;
25846;SDS011;13676;50.168;8.568;2022-09-24T06:52:59;5.60;;;4.40;;
25846;SDS011;13676;50.168;8.568;2022-09-24T06:55:24;5.03;;;4.32;;
25846;SDS011;13676;50.168;8.568;2022-09-24T06:58:00;5.32;;;4.10;;
25846;SDS011;13676;50.168;8.568;2022-09-24T07:00:35;5.25;;;4.15;;
25846;SDS011;13676;50.168;8.568;2022-09-24T07:03:02;6.60;;;4.25;;
25846;SDS011;13676;50.168;8.568;2022-09-24T07:05:28;9.73;;;4.80;;
25846;SDS011;13676;50.168;8.568;2022-09-24T07:07:54;9.15;;;5.05;;
25846;SDS011;13676;50.168;8.568;2022-09-24T07:10:19;6.55;;;4.38;;
25846;SDS011;13676;50.168;8.568;2022-09-24T07:12:45;10.55;;;6.18;;
25846;SDS011;13676;50.168;8.568;2022-09-24T07:15:10;9.07;;;5.63;;
25846;SDS011;13676;50.168;8.568;2022-09-24T07:17:36;8.95;;;6.53;;
25846;SDS011;13676;50.168;8.568;2022-09-24T07:20:02;13.43;;;7.93;;
25846;SDS011;13676;50.168;8.568;2022-09-24T07:22:28;9.83;;;7.20;;
25846;SDS011;13676;50.168;8.568;2022-09-24T07:24:53;11.50;;;7.15;;
25846;SDS011;13676;50.168;8.568;2022-09-24T07:27:19;10.30;;;7.10;;
25846;SDS011;13676;50.168;8.568;2022-09-24T07:29:45;11.77;;;7.40;;
25846;SDS011;13676;50.168;8.568;2022-09-24T07:32:14;8.80;;;6.93;;
25846;SDS011;13676;50.168;8.568;2022-09-24T07:34:41;8.43;;;5.80;;
25846;SDS011;13676;50.168;8.568;2022-09-24T07:37:07;10.32;;;6.20;;
25846;SDS011;13676;50.168;8.568;2022-09-24T07:39:32;10.27;;;6.15;;
25846;SDS011;13676;50.168;8.568;2022-09-24T07:41:57;7.75;;;6.22;;
25846;SDS011;13676;50.168;8.568;2022-09-24T07:44:24;8.20;;;5.65;;
25846;SDS011;13676;50.168;8.568;2022-09-24T07:46:49;6.28;;;5.00;;
25846;SDS011;13676;50.168;8.568;2022-09-24T07:49:15;7.32;;;4.70;;
25846;SDS011;13676;50.168;8.568;2022-09-24T07:51:40;5.65;;;4.50;;
25846;SDS011;13676;50.168;8.568;2022-09-24T07:54:06;6.47;;;4.80;;
25846;SDS011;13676;50.168;8.568;2022-09-24T07:56:31;4.25;;;3.55;;
25846;SDS011;13676;50.168;8.568;2022-09-24T07:58:57;5.60;;;4.72;;
25846;SDS011;13676;50.168;8.568;2022-09-24T08:01:22;7.20;;;4.30;;
25846;SDS011;13676;50.168;8.568;2022-09-24T08:03:49;8.27;;;4.38;;
25846;SDS011;13676;50.168;8.568;2022-09-24T08:06:15;5.93;;;4.87;;
25846;SDS011;13676;50.168;8.568;2022-09-24T08:08:40;8.55;;;6.00;;
25846;SDS011;13676;50.168;8.568;2022-09-24T08:11:08;8.40;;;5.28;;
25846;SDS011;13676;50.168;8.568;2022-09-24T08:16:01;6.68;;;4.35;;
25846;SDS011;13676;50.168;8.568;2022-09-24T08:18:28;6.53;;;4.55;;
25846;SDS011;13676;50.168;8.568;2022-09-24T08:20:56;8.93;;;5.97;;
25846;SDS011;13676;50.168;8.568;2022-09-24T08:23:27;7.70;;;5.55;;
25846;SDS011;13676;50.168;8.568;2022-09-24T08:25:53;6.32;;;5.32;;
25846;SDS011;13676;50.168;8.568;2022-09-24T08:28:18;8.25;;;5.22;;
25846;SDS011;13676;50.168;8.568;2022-09-24T08:30:44;10.98;;;5.97;;
25846;SDS011;13676;50.168;8.568;2022-09-24T08:33:10;8.57;;;5.90;;
25846;SDS011;13676;50.168;8.568;2022-09-24T08:35:36;8.48;;;5.53;;
25846;SDS011;13676;50.168;8.568;2022-09-24T08:38:04;7.68;;;5.18;;
25846;SDS011;13676;50.168;8.568;2022-09-24T08:40:30;6.97;;;5.13;;
25846;SDS011;13676;50.168;8.568;2022-09-24T08:43:13;6.63;;;5.00;;
25846;SDS011;13676;50.168;8.568;2022-09-24T08:45:48;15.15;;;5.40;;
25846;SDS011;13676;50.168;8.568;2022-09-24T08:48:37;8.27;;;4.97;;
25846;SDS011;13676;50.168;8.568;2022-09-24T08:51:07;8.05;;;5.10;;
25846;SDS011;13676;50.168;8.568;2022-09-24T08:53:44;8.40;;;5.47;;
25846;SDS011;13676;50.168;8.568;2022-09-24T08:56:13;8.57;;;5.78;;
25846;SDS011;13676;50.168;8.568;2022-09-24T08:58:51;9.57;;;5.82;;
25846;SDS011;13676;50.168;8.568;2022-09-24T09:01:25;9.27;;;5.30;;
25846;SDS011;13676;50.168;8.568;2022-09-24T09:04:25;9.23;;;6.20;;
25846;SDS011;13676;50.168;8.568;2022-09-24T09:09:48;7.25;;;5.40;;
25846;SDS011;13676;50.168;8.568;2022-09-24T09:12:26;8.60;;;6.03;;
25846;SDS011;13676;50.168;8.568;2022-09-24T09:17:31;6.75;;;4.82;;
25846;SDS011;13676;50.168;8.568;2022-09-24T09:20:02;6.90;;;5.28;;
25846;SDS011;13676;50.168;8.568;2022-09-24T09:22:34;8.95;;;5.75;;
25846;SDS011;13676;50.168;8.568;2022-09-24T09:25:12;7.35;;;5.47;;
25846;SDS011;13676;50.168;8.568;2022-09-24T09:30:11;6.45;;;4.60;;
25846;SDS011;13676;50.168;8.568;2022-09-24T09:32:51;8.55;;;5.22;;
25846;SDS011;13676;50.168;8.568;2022-09-24T09:35:40;7.63;;;5.05;;
25846;SDS011;13676;50.168;8.568;2022-09-24T09:43:26;6.05;;;5.18;;
25846;SDS011;13676;50.168;8.568;2022-09-24T09:45:58;8.73;;;4.93;;
25846;SDS011;13676;50.168;8.568;2022-09-24T09:48:36;6.75;;;5.03;;
25846;SDS011;13676;50.168;8.568;2022-09-24T09:51:08;6.88;;;5.05;;
25846;SDS011;13676;50.168;8.568;2022-09-24T09:53:40;4.95;;;4.32;;
25846;SDS011;13676;50.168;8.568;2022-09-24T09:56:21;6.88;;;5.40;;
25846;SDS011;13676;50.168;8.568;2022-09-24T09:58:47;5.15;;;4.13;;
25846;SDS011;13676;50.168;8.568;2022-09-24T10:01:17;6.95;;;4.10;;
25846;SDS011;13676;50.168;8.568;2022-09-24T10:06:07;9.68;;;5.43;;
25846;SDS011;13676;50.168;8.568;2022-09-24T10:08:34;7.22;;;4.93;;
25846;SDS011;13676;50.168;8.568;2022-09-24T10:11:00;8.00;;;5.53;;
25846;SDS011;13676;50.168;8.568;2022-09-24T10:13:27;8.48;;;5.32;;
25846;SDS011;13676;50.168;8.568;2022-09-24T10:15:54;6.40;;;4.57;;
25846;SDS011;13676;50.168;8.568;2022-09-24T10:18:30;6.05;;;4.38;;
25846;SDS011;13676;50.168;8.568;2022-09-24T10:21:00;7.50;;;4.68;;
25846;SDS011;13676;50.168;8.568;2022-09-24T10:24:02;4.63;;;3.97;;
25846;SDS011;13676;50.168;8.568;2022-09-24T10:26:31;6.07;;;3.90;;
25846;SDS011;13676;50.168;8.568;2022-09-24T10:28:58;5.82;;;3.90;;
25846;SDS011;13676;50.168;8.568;2022-09-24T10:31:43;6.50;;;4.93;;
25846;SDS011;13676;50.168;8.568;2022-09-24T10:37:11;6.80;;;4.07;;
25846;SDS011;13676;50.168;8.568;2022-09-24T10:39:39;8.32;;;4.90;;
25846;SDS011;13676;50.168;8.568;2022-09-24T10:42:04;6.70;;;4.90;;
25846;SDS011;13676;50.168;8.568;2022-09-24T10:44:34;9.55;;;5.22;;
25846;SDS011;13676;50.168;8.568;2022-09-24T11:00:23;12.18;;;6.47;;
25846;SDS011;13676;50.168;8.568;2022-09-24T11:05:36;6.25;;;4.25;;
25846;SDS011;13676;50.168;8.568;2022-09-24T11:11:31;8.95;;;4.40;;
25846;SDS011;13676;50.168;8.568;2022-09-24T11:24:47;6.22;;;4.05;;
25846;SDS011;13676;50.168;8.568;2022-09-24T11:48:43;7.22;;;4.10;;
25846;SDS011;13676;50.168;8.568;2022-09-24T11:51:18;9.27;;;4.20;;
25846;SDS011;13676;50.168;8.568;2022-09-24T11:56:23;4.55;;;2.75;;
25846;SDS011;13676;50.168;8.568;2022-09-24T11:58:51;7.15;;;3.10;;
25846;SDS011;13676;50.168;8.568;2022-09-24T12:01:25;8.88;;;2.50;;
25846;SDS011;13676;50.168;8.568;2022-09-24T12:03:55;6.45;;;3.40;;
25846;SDS011;13676;50.168;8.568;2022-09-24T12:06:25;5.95;;;3.78;;
25846;SDS011;13676;50.168;8.568;2022-09-24T12:14:42;6.80;;;3.60;;
25846;SDS011;13676;50.168;8.568;2022-09-24T12:17:09;6.78;;;3.80;;
25846;SDS011;13676;50.168;8.568;2022-09-24T12:19:45;7.15;;;4.35;;
25846;SDS011;13676;50.168;8.568;2022-09-24T12:22:15;6.35;;;3.42;;
25846;SDS011;13676;50.168;8.568;2022-09-24T12:24:43;6.32;;;3.67;;
25846;SDS011;13676;50.168;8.568;2022-09-24T12:27:14;7.47;;;4.72;;
25846;SDS011;13676;50.168;8.568;2022-09-24T12:29:46;6.45;;;4.32;;
25846;SDS011;13676;50.168;8.568;2022-09-24T12:32:40;4.93;;;3.67;;
25846;SDS011;13676;50.168;8.568;2022-09-24T12:38:22;7.05;;;4.72;;
25846;SDS011;13676;50.168;8.568;2022-09-24T12:43:53;9.75;;;3.75;;
25846;SDS011;13676;50.168;8.568;2022-09-24T12:46:33;4.30;;;3.20;;
25846;SDS011;13676;50.168;8.568;2022-09-24T12:48:59;4.70;;;2.42;;
25846;SDS011;13676;50.168;8.568;2022-09-24T12:51:31;4.40;;;2.90;;
25846;SDS011;13676;50.168;8.568;2022-09-24T12:54:04;4.22;;;3.28;;
25846;SDS011;13676;50.168;8.568;2022-09-24T12:56:42;5.45;;;3.10;;
25846;SDS011;13676;50.168;8.568;2022-09-24T12:59:23;4.80;;;2.92;;
25846;SDS011;13676;50.168;8.568;2022-09-24T13:01:49;4.03;;;2.70;;
25846;SDS011;13676;50.168;8.568;2022-09-24T13:06:41;5.03;;;2.40;;
25846;SDS011;13676;50.168;8.568;2022-09-24T13:12:04;4.53;;;2.15;;
25846;SDS011;13676;50.168;8.568;2022-09-24T13:14:58;2.35;;;2.15;;
25846;SDS011;13676;50.168;8.568;2022-09-24T13:17:27;4.18;;;2.53;;
25846;SDS011;13676;50.168;8.568;2022-09-24T13:25:04;3.63;;;2.80;;
25846;SDS011;13676;50.168;8.568;2022-09-24T13:27:42;5.07;;;3.25;;
25846;SDS011;13676;50.168;8.568;2022-09-24T13:32:37;4.88;;;3.05;;
25846;SDS011;13676;50.168;8.568;2022-09-24T13:35:13;4.70;;;2.72;;
25846;SDS011;13676;50.168;8.568;2022-09-24T13:37:41;7.95;;;2.90;;
25846;SDS011;13676;50.168;8.568;2022-09-24T13:40:27;3.78;;;2.67;;
25846;SDS011;13676;50.168;8.568;2022-09-24T13:45:31;7.72;;;3.00;;
25846;SDS011;13676;50.168;8.568;2022-09-24T13:50:34;4.63;;;2.83;;
25846;SDS011;13676;50.168;8.568;2022-09-24T13:55:38;3.03;;;2.40;;
25846;SDS011;13676;50.168;8.568;2022-09-24T14:04:44;4.22;;;2.00;;
25846;SDS011;13676;50.168;8.568;2022-09-24T14:06:49;2.90;;;1.80;;
25846;SDS011;13676;50.168;8.568;2022-09-24T14:09:29;3.17;;;1.85;;
25846;SDS011;13676;50.168;8.568;2022-09-24T14:11:57;4.47;;;2.03;;
25846;SDS011;13676;50.168;8.568;2022-09-24T14:14:26;3.38;;;1.90;;
25846;SDS011;13676;50.168;8.568;2022-09-24T14:16:53;4.63;;;1.90;;
25846;SDS011;13676;50.168;8.568;2022-09-24T14:19:21;6.78;;;1.67;;
25846;SDS011;13676;50.168;8.568;2022-09-24T14:21:51;2.58;;;1.42;;
25846;SDS011;13676;50.168;8.568;2022-09-24T14:26:58;10.93;;;1.67;;
25846;SDS011;13676;50.168;8.568;2022-09-24T14:29:27;4.00;;;1.50;;
25846;SDS011;13676;50.168;8.568;2022-09-24T14:31:56;5.28;;;1.75;;
25846;SDS011;13676;50.168;8.568;2022-09-24T14:34:32;4.13;;;1.55;;
25846;SDS011;13676;50.168;8.568;2022-09-24T14:37:19;1.88;;;1.40;;
25846;SDS011;13676;50.168;8.568;2022-09-24T14:39:47;5.30;;;1.30;;
25846;SDS011;13676;50.168;8.568;2022-09-24T14:42:22;3.35;;;1.40;;
25846;SDS011;13676;50.168;8.568;2022-09-24T14:44:51;3.15;;;1.67;;
25846;SDS011;13676;50.168;8.568;2022-09-24T14:47:23;5.47;;;1.70;;
25846;SDS011;13676;50.168;8.568;2022-09-24T14:49:52;3.63;;;1.67;;
25846;SDS011;13676;50.168;8.568;2022-09-24T14:52:28;9.80;;;2.00;;
25846;SDS011;13676;50.168;8.568;2022-09-24T14:54:59;3.40;;;1.60;;
25846;SDS011;13676;50.168;8.568;2022-09-24T14:57:26;2.22;;;1.15;;
25846;SDS011;13676;50.168;8.568;2022-09-24T14:59:51;5.90;;;1.20;;
25846;SDS011;13676;50.168;8.568;2022-09-24T15:02:21;4.32;;;1.63;;
25846;SDS011;13676;50.168;8.568;2022-09-24T15:05:05;1.55;;;1.10;;
25846;SDS011;13676;50.168;8.568;2022-09-24T15:07:32;1.48;;;1.30;;
25846;SDS011;13676;50.168;8.568;2022-09-24T15:09:58;1.77;;;1.23;;
25846;SDS011;13676;50.168;8.568;2022-09-24T15:12:26;2.17;;;1.03;;
25846;SDS011;13676;50.168;8.568;2022-09-24T15:17:22;2.53;;;1.15;;
25846;SDS011;13676;50.168;8.568;2022-09-24T15:19:48;4.70;;;1.83;;
25846;SDS011;13676;50.168;8.568;2022-09-24T15:22:18;2.90;;;1.40;;
25846;SDS011;13676;50.168;8.568;2022-09-24T15:24:45;1.17;;;1.08;;
25846;SDS011;13676;50.168;8.568;2022-09-24T15:29:58;1.73;;;1.27;;
25846;SDS011;13676;50.168;8.568;2022-09-24T15:34:51;3.95;;;2.10;;
25846;SDS011;13676;50.168;8.568;2022-09-24T15:37:18;4.38;;;1.63;;
25846;SDS011;13676;50.168;8.568;2022-09-24T15:39:44;1.65;;;1.10;;
25846;SDS011;13676;50.168;8.568;2022-09-24T15:42:22;4.72;;;1.55;;
25846;SDS011;13676;50.168;8.568;2022-09-24T15:44:48;35.90;;;2.50;;
25846;SDS011;13676;50.168;8.568;2022-09-24T15:47:18;13.23;;;1.60;;
25846;SDS011;13676;50.168;8.568;2022-09-24T15:49:43;15.48;;;1.83;;
25846;SDS011;13676;50.168;8.568;2022-09-24T15:52:19;5.45;;;1.70;;
25846;SDS011;13676;50.168;8.568;2022-09-24T15:54:53;5.40;;;1.30;;
25846;SDS011;13676;50.168;8.568;2022-09-24T15:57:20;1.70;;;1.15;;
25846;SDS011;13676;50.168;8.568;2022-09-24T15:59:46;2.15;;;1.13;;
25846;SDS011;13676;50.168;8.568;2022-09-24T16:02:16;1.95;;;1.40;;
25846;SDS011;13676;50.168;8.568;2022-09-24T16:04:53;1.98;;;1.23;;
25846;SDS011;13676;50.168;8.568;2022-09-24T16:07:18;5.10;;;1.60;;
25846;SDS011;13676;50.168;8.568;2022-09-24T16:09:44;2.20;;;1.50;;
25846;SDS011;13676;50.168;8.568;2022-09-24T16:12:13;3.65;;;1.23;;
25846;SDS011;13676;50.168;8.568;2022-09-24T16:14:42;3.13;;;1.45;;
25846;SDS011;13676;50.168;8.568;2022-09-24T16:17:08;2.55;;;1.40;;
25846;SDS011;13676;50.168;8.568;2022-09-24T16:19:34;2.42;;;1.52;;
25846;SDS011;13676;50.168;8.568;2022-09-24T16:21:59;2.63;;;1.40;;
25846;SDS011;13676;50.168;8.568;2022-09-24T16:24:25;3.05;;;1.60;;
25846;SDS011;13676;50.168;8.568;2022-09-24T16:26:51;1.90;;;1.58;;
25846;SDS011;13676;50.168;8.568;2022-09-24T16:29:16;2.63;;;1.60;;
25846;SDS011;13676;50.168;8.568;2022-09-24T16:31:42;3.20;;;1.80;;
25846;SDS011;13676;50.168;8.568;2022-09-24T16:34:09;2.95;;;1.55;;
25846;SDS011;13676;50.168;8.568;2022-09-24T16:36:35;2.95;;;1.88;;
25846;SDS011;13676;50.168;8.568;2022-09-24T16:39:00;2.53;;;1.88;;
25846;SDS011;13676;50.168;8.568;2022-09-24T16:41:26;2.20;;;1.80;;
25846;SDS011;13676;50.168;8.568;2022-09-24T16:43:54;2.97;;;2.08;;
25846;SDS011;13676;50.168;8.568;2022-09-24T16:46:20;2.95;;;1.90;;
25846;SDS011;13676;50.168;8.568;2022-09-24T16:48:49;5.95;;;2.15;;
25846;SDS011;13676;50.168;8.568;2022-09-24T16:51:14;6.70;;;2.20;;
25846;SDS011;13676;50.168;8.568;2022-09-24T16:53:41;4.80;;;2.00;;
25846;SDS011;13676;50.168;8.568;2022-09-24T16:56:10;4.32;;;2.17;;
25846;SDS011;13676;50.168;8.568;2022-09-24T16:58:39;6.78;;;2.30;;
25846;SDS011;13676;50.168;8.568;2022-09-24T17:01:12;4.32;;;2.30;;
25846;SDS011;13676;50.168;8.568;2022-09-24T17:03:39;2.63;;;2.05;;
25846;SDS011;13676;50.168;8.568;2022-09-24T17:06:05;2.88;;;2.00;;
25846;SDS011;13676;50.168;8.568;2022-09-24T17:08:31;7.85;;;2.40;;
25846;SDS011;13676;50.168;8.568;2022-09-24T17:11:16;2.78;;;2.10;;
25846;SDS011;13676;50.168;8.568;2022-09-24T17:13:42;4.18;;;2.20;;
25846;SDS011;13676;50.168;8.568;2022-09-24T17:16:07;4.25;;;2.42;;
25846;SDS011;13676;50.168;8.568;2022-09-24T17:18:33;3.63;;;2.80;;
25846;SDS011;13676;50.168;8.568;2022-09-24T17:21:03;4.43;;;2.80;;
25846;SDS011;13676;50.168;8.568;2022-09-24T17:23:30;3.50;;;2.55;;